Time;durP1;ratioP1;P1;durP2;ratioP2;P2;SDS_P1;SDS_P2;PMS_P1;PMS_P2;Temp;Humidity;BMP_temperature;BMP_pressure;BME280_temperature;BME280_humidity;BME280_pressure;Samples;Min_cycle;Max_cycle;Signal;HPM_P1;HPM_P2
2023/01/13 00:00:51;;;;;;;;;;;;;;;27.21;47.42;97360.74;624736;227;67064;-69
2023/01/13 00:03:19;;;;;;;;;;;;;;;27.20;47.92;97361.86;624540;227;65075;-69
2023/01/13 00:05:47;;;;;;;;;;;;;;;27.19;48.38;97371.03;624756;227;64849;-69
2023/01/13 00:08:14;;;;;;;;;;;;;;;27.20;47.44;97372.65;624815;227;68015;-69
2023/01/13 00:10:41;;;;;;;;;;;;;;;27.20;48.54;97366.43;624762;227;66871;-69
2023/01/13 00:13:09;;;;;;;;;;;;;;;27.18;48.87;97369.45;624775;227;62793;-69
2023/01/13 00:15:36;;;;;;;;;;;;;;;27.17;47.94;97369.73;624723;227;66952;-69
2023/01/13 00:18:04;;;;;;;;;;;;;;;27.16;47.82;97368.12;624783;227;66903;-69
2023/01/13 00:20:31;;;;;;;;;;;;;;;27.15;47.70;97364.63;624646;227;65297;-69
2023/01/13 00:23:00;;;;;;;;;;;;;;;27.15;49.12;97364.63;624651;227;64538;-69
2023/01/13 00:25:27;;;;;;;;;;;;;;;27.14;48.48;97365.71;624782;227;66858;-69
2023/01/13 00:27:55;;;;;;;;;;;;;;;27.13;48.07;97364.13;624762;227;62689;-69
2023/01/13 00:30:22;;;;;;;;;;;;;;;27.13;46.39;97366.83;624771;227;65036;-69
2023/01/13 00:32:50;;;;;;;;;;;;;;;27.12;47.62;97367.11;624836;227;64805;-69
2023/01/13 00:35:17;;;;;;;;;;;;;;;27.11;48.02;97369.02;625682;226;64867;-69
2023/01/13 00:37:45;;;;;;;;;;;;;;;27.11;47.71;97366.32;625650;226;67021;-69
2023/01/13 00:40:12;;;;;;;;;;;;;;;27.11;47.70;97369.02;625935;226;66897;-69
2023/01/13 00:45:25;;;;;;;;;;;;;;;27.09;48.85;97371.24;625966;226;64814;-68
2023/01/13 00:47:53;;;;;;;;;;;;;;;27.09;48.66;97365.02;625981;226;64825;-68
2023/01/13 00:50:20;;;;;;;;;;;;;;;27.07;46.54;97368.04;625893;226;62750;-68
2023/01/13 00:52:48;;;;;;;;;;;;;;;27.06;48.03;97369.13;625901;226;64836;-68
2023/01/13 00:55:15;;;;;;;;;;;;;;;27.06;48.65;97374.52;625928;226;66886;-68
2023/01/13 00:57:43;;;;;;;;;;;;;;;27.05;48.47;97362.14;625930;226;64871;-68
2023/01/13 01:00:11;;;;;;;;;;;;;;;27.04;48.19;97367.83;625965;226;67085;-67
2023/01/13 01:02:38;;;;;;;;;;;;;;;27.03;49.09;97364.34;625930;226;67028;-68
2023/01/13 01:05:06;;;;;;;;;;;;;;;27.03;48.63;97361.64;625921;226;65196;-68
2023/01/13 01:07:33;;;;;;;;;;;;;;;27.03;50.33;97360.84;625884;226;67204;-67
2023/01/13 01:10:01;;;;;;;;;;;;;;;27.01;48.67;97361.16;625748;226;66746;-67
2023/01/13 01:12:28;;;;;;;;;;;;;;;27.01;48.45;97363.86;625913;226;62984;-67
2023/01/13 01:14:56;;;;;;;;;;;;;;;27.00;47.60;97364.94;625930;226;64836;-68
2023/01/13 01:17:23;;;;;;;;;;;;;;;27.00;49.37;97359.55;625905;226;65094;-68
2023/01/13 01:19:51;;;;;;;;;;;;;;;26.99;49.65;97366.05;625937;226;62729;-68
2023/01/13 01:22:18;;;;;;;;;;;;;;;26.98;47.64;97367.95;625874;226;67059;-68
2023/01/13 01:24:47;;;;;;;;;;;;;;;26.97;49.16;97358.25;625989;226;66897;-68
2023/01/13 01:27:14;;;;;;;;;;;;;;;26.97;47.57;97357.45;625941;226;64904;-68
2023/01/13 01:29:42;;;;;;;;;;;;;;;26.97;48.53;97354.77;625857;226;67139;-68
2023/01/13 01:32:09;;;;;;;;;;;;;;;26.95;48.24;97351.56;625753;226;66662;-68
2023/01/13 01:34:38;;;;;;;;;;;;;;;26.94;48.80;97355.37;625243;226;64748;-68
2023/01/13 01:37:05;;;;;;;;;;;;;;;26.94;49.36;97352.67;624775;227;66540;-68
2023/01/13 01:39:34;;;;;;;;;;;;;;;26.93;48.67;97349.18;624860;227;66657;-75
2023/01/13 01:44:48;;;;;;;;;;;;;;;26.91;49.03;97353.28;624850;227;64902;-75
2023/01/13 01:47:17;;;;;;;;;;;;;;;26.90;47.55;97346.27;624724;226;66655;-75
2023/01/13 01:49:45;;;;;;;;;;;;;;;26.89;48.78;97348.17;624798;227;62711;-75
2023/01/13 01:52:17;;;;;;;;;;;;;;;26.89;48.19;97345.48;624674;227;64241;-75
2023/01/13 01:54:49;;;;;;;;;;;;;;;26.89;48.55;97344.68;624787;227;64571;-75
2023/01/13 01:57:21;;;;;;;;;;;;;;;26.87;48.78;97342.27;624710;226;62589;-75
2023/01/13 01:59:49;;;;;;;;;;;;;;;26.86;49.31;97339.89;624745;227;67032;-75
2023/01/13 02:02:17;;;;;;;;;;;;;;;26.85;49.32;97335.61;624804;227;66707;-76
2023/01/13 02:04:49;;;;;;;;;;;;;;;26.84;47.69;97339.39;624794;227;64885;-76
2023/01/13 02:07:15;;;;;;;;;;;;;;;26.83;48.44;97340.50;624760;226;64813;-75
2023/01/13 02:09:43;;;;;;;;;;;;;;;26.83;48.67;97343.20;624789;227;66975;-75
2023/01/13 02:12:30;;;;;;;;;;;;;;;26.82;47.79;97346.98;624770;227;65024;-75
2023/01/13 02:15:00;;;;;;;;;;;;;;;26.81;49.52;97342.70;624668;227;64835;-75
2023/01/13 02:17:35;;;;;;;;;;;;;;;26.79;47.17;97337.59;624381;226;67790;-75
2023/01/13 02:20:17;;;;;;;;;;;;;;;26.78;48.25;97336.80;624555;226;64958;-76
2023/01/13 02:22:54;;;;;;;;;;;;;;;26.78;47.91;97336.80;624789;227;67012;-74
2023/01/13 02:25:33;;;;;;;;;;;;;;;26.76;47.79;97341.72;624483;226;64759;-74
2023/01/13 02:28:02;;;;;;;;;;;;;;;26.77;48.29;97345.20;624773;227;65195;-74
2023/01/13 02:33:39;;;;;;;;;;;;;;;26.74;48.12;97349.30;623836;226;67900;-75
2023/01/13 02:36:08;;;;;;;;;;;;;;;26.73;48.77;97344.98;624761;226;65286;-75
2023/01/13 02:38:36;;;;;;;;;;;;;;;26.74;48.74;97348.50;624694;227;67274;-75
2023/01/13 02:44:07;;;;;;;;;;;;;;;26.71;47.32;97351.77;624788;227;63074;-75
2023/01/13 02:46:46;;;;;;;;;;;;;;;26.70;48.21;97350.19;624822;227;65097;-75
2023/01/13 02:49:15;;;;;;;;;;;;;;;26.69;48.59;97354.78;624805;227;67063;-75
2023/01/13 02:51:44;;;;;;;;;;;;;;;26.68;49.91;97350.50;624705;226;63138;-75
2023/01/13 02:54:19;;;;;;;;;;;;;;;26.67;48.73;97354.28;624752;227;66766;-75
2023/01/13 02:56:49;;;;;;;;;;;;;;;26.67;49.71;97356.97;624773;227;66879;-75
2023/01/13 02:59:19;;;;;;;;;;;;;;;26.67;48.60;97353.48;624753;227;65103;-75
2023/01/13 03:01:47;;;;;;;;;;;;;;;26.66;48.79;97360.78;624772;227;67456;-75
2023/01/13 03:04:16;;;;;;;;;;;;;;;26.65;49.13;97355.67;624588;227;64749;-75
2023/01/13 03:06:48;;;;;;;;;;;;;;;26.65;47.56;97361.06;624214;227;63125;-75
2023/01/13 03:09:23;;;;;;;;;;;;;;;26.64;49.24;97359.48;624789;227;67178;-75
2023/01/13 03:11:52;;;;;;;;;;;;;;;26.63;48.72;97360.56;624696;226;66942;-75
2023/01/13 03:14:21;;;;;;;;;;;;;;;26.62;47.43;97361.67;624404;226;65102;-75
2023/01/13 03:16:50;;;;;;;;;;;;;;;26.61;48.16;97358.18;624164;227;67381;-75
2023/01/13 03:19:36;;;;;;;;;;;;;;;26.61;48.35;97357.39;624638;226;67185;-75
2023/01/13 03:22:11;;;;;;;;;;;;;;;26.61;47.35;97360.08;624547;227;65074;-75
2023/01/13 03:24:40;;;;;;;;;;;;;;;26.59;48.44;97351.48;624733;227;67211;-75
2023/01/13 03:27:09;;;;;;;;;;;;;;;26.57;48.39;97346.38;624741;226;63176;-75
2023/01/13 03:29:38;;;;;;;;;;;;;;;26.56;48.84;97347.49;624746;226;65049;-75
2023/01/13 03:32:19;;;;;;;;;;;;;;;26.56;48.22;97347.49;624832;227;65769;-75
2023/01/13 03:34:48;;;;;;;;;;;;;;;26.54;47.34;97342.39;625350;226;64810;-68
2023/01/13 03:37:17;;;;;;;;;;;;;;;26.54;47.46;97349.68;625634;226;65134;-68
2023/01/13 03:39:47;;;;;;;;;;;;;;;26.54;49.03;97346.98;625722;226;67317;-68
2023/01/13 03:42:16;;;;;;;;;;;;;;;26.52;49.92;97347.30;625790;226;64653;-68
2023/01/13 03:44:48;;;;;;;;;;;;;;;26.52;48.36;97349.20;625907;225;62540;-68
2023/01/13 03:47:22;;;;;;;;;;;;;;;26.50;48.67;97346.77;624233;226;64930;-68
2023/01/13 03:49:57;;;;;;;;;;;;;;;26.51;50.35;97350.28;625809;225;65139;-68
2023/01/13 03:52:26;;;;;;;;;;;;;;;26.49;47.80;97347.05;625836;226;62984;-68
2023/01/13 03:54:56;;;;;;;;;;;;;;;26.48;49.00;97350.86;625918;226;67220;-68
2023/01/13 03:57:25;;;;;;;;;;;;;;;26.47;49.92;97336.59;625615;226;67105;-68
2023/01/13 03:59:54;;;;;;;;;;;;;;;26.46;48.67;97340.36;625927;226;64968;-68
2023/01/13 04:02:23;;;;;;;;;;;;;;;26.45;48.89;97349.55;625982;226;67212;-68
2023/01/13 04:04:52;;;;;;;;;;;;;;;26.45;49.01;97344.16;625641;226;66870;-68
2023/01/13 04:07:21;;;;;;;;;;;;;;;26.44;48.46;97341.78;625112;226;64946;-68
2023/01/13 04:09:53;;;;;;;;;;;;;;;26.44;49.06;97347.17;625758;226;66784;-69
2023/01/13 04:15:23;;;;;;;;;;;;;;;26.41;48.15;97345.05;615923;226;65352;-69
2023/01/13 04:17:51;;;;;;;;;;;;;;;26.40;48.09;97349.64;625987;226;67280;-69
2023/01/13 04:20:18;;;;;;;;;;;;;;;26.39;49.42;97353.45;625940;226;66871;-69
2023/01/13 04:22:46;;;;;;;;;;;;;;;26.39;48.92;97353.45;625936;226;64884;-69
2023/01/13 04:25:13;;;;;;;;;;;;;;;26.37;48.26;97358.33;625646;226;64892;-69
2023/01/13 04:27:41;;;;;;;;;;;;;;;26.38;48.72;97351.03;625894;226;66660;-69
2023/01/13 04:30:09;;;;;;;;;;;;;;;26.35;49.83;97353.25;625988;226;64893;-69
2023/01/13 04:32:36;;;;;;;;;;;;;;;26.34;49.21;97357.03;625929;226;67303;-69
2023/01/13 04:35:04;;;;;;;;;;;;;;;26.34;49.45;97357.03;625813;226;67688;-69
2023/01/13 04:37:31;;;;;;;;;;;;;;;26.33;48.60;97354.64;625649;226;64779;-69
2023/01/13 04:39:59;;;;;;;;;;;;;;;26.33;50.30;97354.64;625855;226;67069;-69
2023/01/13 04:42:26;;;;;;;;;;;;;;;26.32;49.38;97351.13;625883;226;66889;-69
2023/01/13 04:44:55;;;;;;;;;;;;;;;26.31;49.75;97357.63;625892;226;64976;-69
2023/01/13 04:47:22;;;;;;;;;;;;;;;26.31;50.59;97359.53;625884;226;67042;-69
2023/01/13 04:49:50;;;;;;;;;;;;;;;26.30;51.35;97360.60;625881;226;66958;-69
2023/01/13 04:52:17;;;;;;;;;;;;;;;26.28;48.53;97352.83;625887;226;64833;-69
2023/01/13 04:54:45;;;;;;;;;;;;;;;26.28;48.72;97357.43;625854;226;67071;-69
2023/01/13 04:57:12;;;;;;;;;;;;;;;26.26;49.14;97355.02;625930;226;66682;-69
2023/01/13 04:59:40;;;;;;;;;;;;;;;26.26;47.90;97355.02;625897;226;64875;-69
2023/01/13 05:02:08;;;;;;;;;;;;;;;26.26;50.16;97365.00;625940;226;67140;-69
2023/01/13 05:04:36;;;;;;;;;;;;;;;26.24;47.98;97362.59;625971;226;67178;-69
2023/01/13 05:07:03;;;;;;;;;;;;;;;26.23;49.99;97366.39;626002;226;64872;-69
2023/01/13 05:09:31;;;;;;;;;;;;;;;26.22;48.41;97369.37;625947;226;67040;-69
2023/01/13 05:17:30;;;;;;;;;;;;;;;26.20;49.23;97358.11;625976;226;67085;-67
2023/01/13 05:19:58;;;;;;;;;;;;;;;26.19;49.37;97368.09;625994;226;65159;-74
2023/01/13 05:25:26;;;;;;;;;;;;;;;26.17;49.01;97380.27;625982;226;66973;-74
2023/01/13 05:27:55;;;;;;;;;;;;;;;26.16;48.80;97382.13;625996;226;64929;-76
2023/01/13 05:30:24;;;;;;;;;;;;;;;26.16;49.84;97389.42;625956;226;66090;-75
2023/01/13 05:32:52;;;;;;;;;;;;;;;26.14;49.58;97381.65;625947;226;67606;-75
2023/01/13 05:35:19;;;;;;;;;;;;;;;26.14;49.92;97381.65;625952;226;66910;-75
2023/01/13 05:37:47;;;;;;;;;;;;;;;26.12;50.33;97381.93;626003;226;64985;-76
2023/01/13 05:43:23;;;;;;;;;;;;;;;26.11;49.90;97384.94;625991;226;67084;-75
2023/01/13 05:45:57;;;;;;;;;;;;;;;26.11;50.81;97391.12;625999;226;62840;-76
2023/01/13 05:48:27;;;;;;;;;;;;;;;26.10;50.17;97397.58;626015;226;66703;-74
2023/01/13 05:50:56;;;;;;;;;;;;;;;26.10;49.49;97391.40;625876;226;64885;-75
2023/01/13 05:53:24;;;;;;;;;;;;;;;26.09;49.17;97395.20;625976;224;65212;-75
2023/01/13 05:55:52;;;;;;;;;;;;;;;26.09;48.90;97393.30;625965;226;66749;-75
2023/01/13 05:58:20;;;;;;;;;;;;;;;26.09;50.83;97395.99;626024;226;66732;-75
2023/01/13 06:00:48;;;;;;;;;;;;;;;26.08;50.40;97397.09;626013;226;64939;-75
2023/01/13 06:03:18;;;;;;;;;;;;;;;26.07;49.03;97395.48;626005;226;66756;-75
2023/01/13 06:05:46;;;;;;;;;;;;;;;26.07;49.29;97400.87;625991;226;66750;-75
2023/01/13 06:08:14;;;;;;;;;;;;;;;26.07;51.12;97395.48;625988;226;62711;-75
2023/01/13 06:10:41;;;;;;;;;;;;;;;26.07;49.46;97405.45;625956;226;64494;-75
2023/01/13 06:13:09;;;;;;;;;;;;;;;26.07;50.21;97410.84;625936;225;65455;-75
2023/01/13 06:15:36;;;;;;;;;;;;;;;26.07;48.67;97410.84;619094;226;64866;-75
2023/01/13 06:18:04;;;;;;;;;;;;;;;26.07;49.02;97416.23;618839;229;67122;-75
2023/01/13 06:20:32;;;;;;;;;;;;;;;26.06;49.31;97409.26;618788;229;65371;-76
2023/01/13 06:23:00;;;;;;;;;;;;;;;26.06;49.13;97415.44;618865;229;63628;-76
2023/01/13 06:25:35;;;;;;;;;;;;;;;26.04;49.94;97414.92;618839;229;64880;-77
2023/01/13 06:28:03;;;;;;;;;;;;;;;26.05;50.02;97421.11;618805;228;67061;-74
2023/01/13 06:30:38;;;;;;;;;;;;;;;26.04;49.13;97417.62;618821;229;64899;-74
2023/01/13 06:33:07;;;;;;;;;;;;;;;26.05;49.89;97418.41;618825;229;64488;-75
2023/01/13 06:35:35;;;;;;;;;;;;;;;26.05;49.66;97415.72;617751;229;64805;-68
2023/01/13 06:38:06;;;;;;;;;;;;;;;26.05;49.79;97418.41;617650;229;62680;-68
2023/01/13 06:40:34;;;;;;;;;;;;;;;26.04;49.33;97424.91;617746;229;66970;-68
2023/01/13 06:43:14;;;;;;;;;;;;;;;26.02;49.68;97416.31;617646;229;66911;-68
2023/01/13 06:45:49;;;;;;;;;;;;;;;26.02;48.76;97414.41;617297;229;65399;-68
2023/01/13 06:48:17;;;;;;;;;;;;;;;26.03;49.68;97415.23;617759;229;67253;-68
2023/01/13 06:50:45;;;;;;;;;;;;;;;26.00;49.78;97408.55;617722;229;66942;-68
2023/01/13 06:53:12;;;;;;;;;;;;;;;26.01;49.93;97418.21;617733;229;64815;-68
2023/01/13 06:55:40;;;;;;;;;;;;;;;26.01;50.10;97422.80;617717;229;64929;-68
2023/01/13 06:58:07;;;;;;;;;;;;;;;26.00;49.30;97422.01;619658;227;64612;-68
2023/01/13 07:00:38;;;;;;;;;;;;;;;26.00;49.38;97424.70;618049;227;62760;-67
2023/01/13 07:03:10;;;;;;;;;;;;;;;26.00;48.42;97421.19;617754;229;67104;-68
2023/01/13 07:05:37;;;;;;;;;;;;;;;25.98;48.66;97428.78;617632;229;66915;-67
2023/01/13 07:08:05;;;;;;;;;;;;;;;25.98;48.95;97418.80;617711;229;62835;-66
2023/01/13 07:10:33;;;;;;;;;;;;;;;25.93;44.50;97424.27;616627;229;67151;-66
2023/01/13 07:15:54;;;;;;;;;;;;;;;25.91;49.39;97429.13;617695;229;65232;-68
2023/01/13 07:18:21;;;;;;;;;;;;;;;25.90;47.90;97432.93;616957;228;67169;-66
2023/01/13 07:20:52;;;;;;;;;;;;;;;25.90;47.36;97436.42;617428;229;66878;-65
2023/01/13 07:23:20;;;;;;;;;;;;;;;25.90;49.55;97433.72;617711;227;65121;-66
2023/01/13 07:25:48;;;;;;;;;;;;;;;25.92;49.07;97436.14;623071;227;67080;-67
2023/01/13 07:28:16;;;;;;;;;;;;;;;25.93;49.59;97431.55;624759;227;64593;-66
2023/01/13 07:30:43;;;;;;;;;;;;;;;25.94;45.95;97431.23;624774;227;62986;-67
2023/01/13 07:33:10;;;;;;;;;;;;;;;25.97;48.71;97435.23;624684;227;65000;-67
2023/01/13 07:35:38;;;;;;;;;;;;;;;25.98;48.71;97440.34;625857;226;65229;-66
2023/01/13 07:38:07;;;;;;;;;;;;;;;25.99;48.90;97443.83;624343;226;62822;-67
2023/01/13 07:40:34;;;;;;;;;;;;;;;26.00;47.58;97446.25;625285;227;67257;-67
2023/01/13 07:45:48;;;;;;;;;;;;;;;26.06;48.34;97449.66;625466;227;63702;-67
2023/01/13 07:48:15;;;;;;;;;;;;;;;26.08;51.12;97452.84;625495;227;64887;-66
2023/01/13 07:50:43;;;;;;;;;;;;;;;26.10;51.63;97445.27;625564;227;64722;-66
2023/01/13 07:53:10;;;;;;;;;;;;;;;26.12;49.75;97451.97;625552;227;62894;-68
2023/01/13 07:55:39;;;;;;;;;;;;;;;26.13;48.99;97450.86;625562;227;64751;-67
2023/01/13 07:58:08;;;;;;;;;;;;;;;26.16;49.61;97452.16;625369;227;67045;-65
2023/01/13 08:00:36;;;;;;;;;;;;;;;26.18;50.62;97455.37;625285;227;65241;-66
2023/01/13 08:03:03;;;;;;;;;;;;;;;26.18;48.44;97457.27;625391;227;67449;-66
2023/01/13 08:05:31;;;;;;;;;;;;;;;26.19;48.26;97458.86;625486;227;66910;-66
2023/01/13 08:07:59;;;;;;;;;;;;;;;26.18;48.81;97460.77;624697;227;65263;-67
2023/01/13 08:10:26;;;;;;;;;;;;;;;26.21;51.60;97453.98;625141;227;67367;-67
2023/01/13 08:15:39;;;;;;;;;;;;;;;26.20;49.63;97453.19;625885;226;64907;-66
2023/01/13 08:18:06;;;;;;;;;;;;;;;26.23;46.20;97447.21;625985;226;67190;-66
2023/01/13 08:20:34;;;;;;;;;;;;;;;26.26;50.68;97465.48;625888;226;66837;-64
2023/01/13 08:23:02;;;;;;;;;;;;;;;26.28;51.62;97459.81;625876;226;62888;-67
2023/01/13 08:25:29;;;;;;;;;;;;;;;26.27;49.17;97456.32;625900;226;64899;-65
2023/01/13 08:27:59;;;;;;;;;;;;;;;26.28;48.64;97465.98;625911;226;64725;-71
2023/01/13 08:30:27;;;;;;;;;;;;;;;26.29;50.12;97466.78;623500;226;65110;-71
2023/01/13 08:32:54;;;;;;;;;;;;;;;26.30;48.95;97460.29;623066;226;65012;-70
2023/01/13 08:35:22;;;;;;;;;;;;;;;26.31;49.65;97453.83;619599;228;64776;-71
2023/01/13 08:37:50;;;;;;;;;;;;;;;26.32;50.92;97461.59;620101;228;63609;-71
2023/01/13 08:40:19;;;;;;;;;;;;;;;26.33;48.50;97459.73;622083;228;64999;-71
2023/01/13 08:42:47;;;;;;;;;;;;;;;26.33;48.39;97468.61;621771;228;66813;-71
2023/01/13 08:45:14;;;;;;;;;;;;;;;26.35;49.31;97462.91;621698;228;65016;-71
2023/01/13 08:47:42;;;;;;;;;;;;;;;26.36;50.10;97456.44;619587;228;67436;-67
2023/01/13 08:50:10;;;;;;;;;;;;;;;26.37;50.81;97458.03;619477;229;67398;-71
2023/01/13 08:52:38;;;;;;;;;;;;;;;26.39;51.04;97452.36;619551;229;65038;-72
2023/01/13 08:55:06;;;;;;;;;;;;;;;26.40;50.29;97456.64;619810;228;67176;-70
2023/01/13 08:57:33;;;;;;;;;;;;;;;26.40;51.14;97484.38;621559;228;67076;-69
2023/01/13 09:00:00;;;;;;;;;;;;;;;26.43;40.96;97446.06;620157;228;65064;-68
2023/01/13 09:02:28;;;;;;;;;;;;;;;26.49;41.90;97447.59;622358;228;68033;-71
2023/01/13 09:04:55;;;;;;;;;;;;;;;26.48;45.69;97448.67;622337;228;67125;-69
2023/01/13 09:07:23;;;;;;;;;;;;;;;26.48;49.15;97443.28;622478;228;63160;-70
2023/01/13 09:09:50;;;;;;;;;;;;;;;26.47;51.01;97439.00;621947;228;64369;-68
2023/01/13 09:15:05;;;;;;;;;;;;;;;26.44;51.07;97438.80;621608;228;63862;-69
2023/01/13 09:17:32;;;;;;;;;;;;;;;26.44;54.77;97436.10;622365;228;67493;-70
2023/01/13 09:20:00;;;;;;;;;;;;;;;26.42;51.00;97438.29;622301;228;67228;-69
2023/01/13 09:22:27;;;;;;;;;;;;;;;26.42;47.47;97439.08;622250;228;65085;-70
2023/01/13 09:24:55;;;;;;;;;;;;;;;26.42;49.86;97433.69;622385;228;67094;-70
2023/01/13 09:27:23;;;;;;;;;;;;;;;26.42;49.25;97433.69;622068;228;66966;-67
2023/01/13 09:29:50;;;;;;;;;;;;;;;26.43;50.75;97432.58;622039;228;65042;-71
2023/01/13 09:32:18;;;;;;;;;;;;;;;26.43;50.57;97429.09;622341;228;67298;-68
2023/01/13 09:35:00;;;;;;;;;;;;;;;26.42;48.53;97419.42;624119;226;67300;-69
2023/01/13 09:37:28;;;;;;;;;;;;;;;26.42;50.09;97422.12;625489;227;62986;-69
2023/01/13 09:39:56;;;;;;;;;;;;;;;26.42;49.80;97422.12;625379;227;64999;-70
2023/01/13 09:45:21;;;;;;;;;;;;;;;26.42;50.17;97417.52;625457;227;65112;-68
2023/01/13 09:47:55;;;;;;;;;;;;;;;26.42;49.70;97417.52;625366;227;67102;-70
2023/01/13 09:50:27;;;;;;;;;;;;;;;26.45;48.16;97419.63;625355;227;66981;-70
2023/01/13 09:52:55;;;;;;;;;;;;;;;26.46;50.24;97418.52;625348;227;62844;-70
2023/01/13 09:55:28;;;;;;;;;;;;;;;26.46;51.40;97412.33;625469;227;67377;-70
2023/01/13 09:57:55;;;;;;;;;;;;;;;26.45;50.86;97408.84;625545;227;66541;-71
2023/01/13 10:00:25;;;;;;;;;;;;;;;26.46;50.34;97409.64;625497;227;65045;-71
2023/01/13 10:03:10;;;;;;;;;;;;;;;26.45;50.88;97406.14;624280;227;65201;-69
2023/01/13 10:05:39;;;;;;;;;;;;;;;26.46;50.34;97404.25;625468;227;67044;-70
2023/01/13 10:08:11;;;;;;;;;;;;;;;26.46;49.58;97402.34;625529;227;65700;-70
2023/01/13 10:10:43;;;;;;;;;;;;;;;26.47;50.24;97411.25;625413;227;66978;-69
2023/01/13 10:13:21;;;;;;;;;;;;;;;26.46;49.59;97404.25;625475;227;64713;-69
2023/01/13 10:15:53;;;;;;;;;;;;;;;26.46;50.12;97398.86;625485;227;65058;-70
2023/01/13 10:18:25;;;;;;;;;;;;;;;26.45;49.15;97400.75;625005;227;64757;-70
2023/01/13 10:20:54;;;;;;;;;;;;;;;26.45;47.90;97389.19;625398;227;64854;-70
2023/01/13 10:23:23;;;;;;;;;;;;;;;26.45;47.94;97386.48;619285;226;62998;-71
2023/01/13 10:26:09;;;;;;;;;;;;;;;26.44;48.45;97387.59;617465;229;66930;-73
2023/01/13 10:28:36;;;;;;;;;;;;;;;26.45;47.33;97389.19;618700;229;67027;-70
2023/01/13 10:31:05;;;;;;;;;;;;;;;26.44;47.22;97392.98;618670;229;65163;-72
2023/01/13 10:33:33;;;;;;;;;;;;;;;26.43;47.17;97385.98;618436;228;67463;-72
2023/01/13 10:36:05;;;;;;;;;;;;;;;26.43;48.70;97381.38;617625;229;67140;-70
2023/01/13 10:38:37;;;;;;;;;;;;;;;26.42;48.09;97374.41;617243;228;65138;-69
2023/01/13 10:41:06;;;;;;;;;;;;;;;26.43;48.72;97372.50;617256;229;67246;-69
2023/01/13 10:43:33;;;;;;;;;;;;;;;26.42;47.62;97373.61;617073;229;67117;-69
2023/01/13 10:46:02;;;;;;;;;;;;;;;26.42;48.06;97377.10;617581;229;65075;-69
2023/01/13 10:48:34;;;;;;;;;;;;;;;26.43;48.99;97375.20;617601;229;67035;-68
2023/01/13 10:51:05;;;;;;;;;;;;;;;26.44;50.01;97371.42;617334;228;43293;-70
2023/01/13 10:53:34;;;;;;;;;;;;;;;26.43;48.55;97365.22;613350;228;65278;-69
2023/01/13 10:56:03;;;;;;;;;;;;;;;26.44;48.85;97360.65;616953;228;64915;-69
2023/01/13 10:58:31;;;;;;;;;;;;;;;26.45;49.44;97359.54;617047;229;67166;-68
2023/01/13 11:01:00;;;;;;;;;;;;;;;26.44;48.16;97358.74;617154;229;65118;-68
2023/01/13 11:03:29;;;;;;;;;;;;;;;26.45;49.94;97351.45;617243;229;67323;-68
2023/01/13 11:05:57;;;;;;;;;;;;;;;26.44;49.23;97347.17;617145;228;67087;-69
2023/01/13 11:08:30;;;;;;;;;;;;;;;26.45;51.23;97346.86;617227;229;62927;-68
2023/01/13 11:10:58;;;;;;;;;;;;;;;26.45;49.79;97343.38;616890;229;67266;-71
2023/01/13 11:13:28;;;;;;;;;;;;;;;26.43;49.72;97349.05;617498;229;66706;-72
2023/01/13 11:16:16;;;;;;;;;;;;;;;26.44;49.99;97339.09;617574;229;65151;-70
2023/01/13 11:19:00;;;;;;;;;;;;;;;26.44;48.80;97342.58;617571;229;67323;-70
2023/01/13 11:21:16;;;;;;;;;;;;;;;26.45;49.45;97343.38;617170;228;65387;-71
2023/01/13 11:23:45;;;;;;;;;;;;;;;26.43;47.09;97340.96;617452;228;62909;-71
2023/01/13 11:26:19;;;;;;;;;;;;;;;26.44;48.95;97342.58;617408;228;64882;-64
2023/01/13 11:28:51;;;;;;;;;;;;;;;26.46;47.66;97334.17;618031;227;67912;-69
2023/01/13 11:31:23;;;;;;;;;;;;;;;26.46;46.29;97340.36;617429;228;65062;-69
2023/01/13 11:33:52;;;;;;;;;;;;;;;26.48;48.72;97340.08;617571;229;67964;-69
2023/01/13 11:36:21;;;;;;;;;;;;;;;26.49;48.09;97336.27;618583;229;64583;-70
2023/01/13 11:38:50;;;;;;;;;;;;;;;26.48;49.02;97335.48;618741;229;64828;-72
2023/01/13 11:41:32;;;;;;;;;;;;;;;26.48;47.88;97330.09;618283;229;67720;-71
2023/01/13 11:44:09;;;;;;;;;;;;;;;26.50;47.52;97327.11;618721;229;66976;-66
2023/01/13 11:46:38;;;;;;;;;;;;;;;26.50;48.22;97327.90;618689;229;64881;-66
2023/01/13 11:49:06;;;;;;;;;;;;;;;26.52;47.65;97341.12;618670;229;67472;-63
2023/01/13 11:51:34;;;;;;;;;;;;;;;26.51;48.10;97339.50;618701;229;66919;-64
2023/01/13 11:54:03;;;;;;;;;;;;;;;26.50;47.95;97332.50;618682;229;63826;-64
2023/01/13 11:56:51;;;;;;;;;;;;;;;26.51;49.43;97334.11;618417;229;64971;-64
2023/01/13 11:59:26;;;;;;;;;;;;;;;26.50;49.79;97330.59;618702;227;67033;-64
2023/01/13 12:01:58;;;;;;;;;;;;;;;26.48;49.85;97329.30;618307;229;64620;-65
2023/01/13 12:04:30;;;;;;;;;;;;;;;26.48;49.93;97326.59;614664;229;65019;-65
2023/01/13 12:07:14;;;;;;;;;;;;;;;26.47;49.28;97327.70;618624;229;67062;-65
2023/01/13 12:10:00;;;;;;;;;;;;;;;26.46;49.82;97326.88;603187;235;65208;-65
2023/01/13 12:12:46;;;;;;;;;;;;;;;26.47;50.85;97327.70;615455;229;67239;-65
2023/01/13 12:15:21;;;;;;;;;;;;;;;26.47;50.85;97325.02;618674;229;65146;-65
2023/01/13 12:17:50;;;;;;;;;;;;;;;26.46;50.54;97320.70;618698;229;65306;-65
2023/01/13 12:20:35;;;;;;;;;;;;;;;26.46;51.41;97318.80;618347;229;67208;-65
2023/01/13 12:23:04;;;;;;;;;;;;;;;26.46;49.85;97321.50;618717;229;67064;-66
2023/01/13 12:25:38;;;;;;;;;;;;;;;26.45;50.36;97322.61;618700;229;63467;-65
2023/01/13 12:28:07;;;;;;;;;;;;;;;26.46;51.63;97315.31;618778;229;67959;-65
2023/01/13 12:30:41;;;;;;;;;;;;;;;26.47;49.04;97319.63;618558;229;66774;-64
2023/01/13 12:33:10;;;;;;;;;;;;;;;26.46;49.94;97324.19;618614;229;65067;-64
2023/01/13 12:35:39;;;;;;;;;;;;;;;26.45;49.87;97314.52;615259;229;67298;-64
2023/01/13 12:38:11;;;;;;;;;;;;;;;26.46;49.01;97315.31;615292;230;66074;-65
2023/01/13 12:40:42;;;;;;;;;;;;;;;26.47;49.38;97315.02;615396;230;61823;-64
2023/01/13 12:46:18;;;;;;;;;;;;;;;26.47;48.44;97315.02;615333;230;67167;-64
2023/01/13 12:48:48;;;;;;;;;;;;;;;26.48;49.35;97318.52;615400;230;63051;-64
2023/01/13 12:51:22;;;;;;;;;;;;;;;26.48;49.11;97319.30;615387;230;67011;-62
2023/01/13 12:53:50;;;;;;;;;;;;;;;26.46;48.90;97326.88;615281;230;65056;-64
2023/01/13 12:56:22;;;;;;;;;;;;;;;26.46;50.31;97323.39;615348;230;65127;-65
2023/01/13 12:58:50;;;;;;;;;;;;;;;26.46;49.71;97329.58;615401;230;64787;-65
2023/01/13 13:01:17;;;;;;;;;;;;;;;26.46;48.29;97320.70;615287;230;65146;-65
2023/01/13 13:04:03;;;;;;;;;;;;;;;26.47;49.78;97327.70;615337;230;65024;-67
2023/01/13 13:06:30;;;;;;;;;;;;;;;26.46;48.55;97326.09;615272;230;67469;-65
2023/01/13 13:09:15;;;;;;;;;;;;;;;26.46;47.95;97324.19;615351;230;67059;-66
2023/01/13 13:14:39;;;;;;;;;;;;;;;26.46;47.43;97320.70;615280;230;64943;-65
2023/01/13 13:17:14;;;;;;;;;;;;;;;26.45;49.95;97321.81;615419;230;65121;-65
2023/01/13 13:19:42;;;;;;;;;;;;;;;26.45;49.91;97327.20;615337;230;65213;-65
2023/01/13 13:22:16;;;;;;;;;;;;;;;26.45;49.55;97324.50;615343;230;64734;-64
2023/01/13 13:24:45;;;;;;;;;;;;;;;26.46;50.40;97326.09;615375;230;67089;-64
2023/01/13 13:27:30;;;;;;;;;;;;;;;26.46;49.90;97326.88;614408;230;62994;-66
2023/01/13 13:30:03;;;;;;;;;;;;;;;26.46;49.59;97331.48;615298;230;65011;-64
2023/01/13 13:32:41;;;;;;;;;;;;;;;26.47;48.88;97330.41;615005;230;67124;-66
2023/01/13 13:35:10;;;;;;;;;;;;;;;26.46;49.54;97326.88;615307;229;65106;-65
2023/01/13 13:46:47;;;;;;;;;;;;;;;26.48;49.41;97332.78;615309;230;66986;-66
2023/01/13 13:49:15;;;;;;;;;;;;;;;26.48;49.78;97326.59;615356;230;66862;-65
2023/01/13 13:51:48;;;;;;;;;;;;;;;26.48;50.20;97330.09;615354;230;63628;-64
2023/01/13 13:54:20;;;;;;;;;;;;;;;26.49;49.81;97337.09;615264;230;67189;-63
2023/01/13 13:56:49;;;;;;;;;;;;;;;26.52;50.68;97338.42;615355;230;65248;-64